createdAt,value
2023-05-01T00:00:09.903Z,0.3842
2023-05-01T00:01:11.556Z,0.3847
2023-05-01T00:02:13.238Z,0.3843
2023-05-01T00:03:15.246Z,0.3852
2023-05-01T00:04:16.865Z,0.3872
2023-05-01T00:05:19.126Z,0.3852
2023-05-01T00:06:19.752Z,0.3851
2023-05-01T00:07:21.325Z,0.3859
2023-05-01T00:08:22.997Z,0.3867
2023-05-01T00:09:24.614Z,0.3861
2023-05-01T00:10:26.388Z,0.3873
2023-05-01T00:11:27.935Z,0.3879
2023-05-01T00:12:29.582Z,0.3903
2023-05-01T00:13:31.173Z,0.3896
2023-05-01T00:14:32.851Z,0.3907
2023-05-01T00:15:34.488Z,0.3901
2023-05-01T00:16:36.274Z,0.3874
2023-05-01T00:17:37.762Z,0.3876
2023-05-01T00:18:39.444Z,0.3872
2023-05-01T00:19:41.646Z,0.3886
2023-05-01T00:20:42.752Z,0.3896
2023-05-01T00:21:44.355Z,0.3891
2023-05-01T00:22:46.002Z,0.3904
2023-05-01T00:23:47.637Z,0.3903
2023-05-01T00:24:49.377Z,0.3945
2023-05-01T00:25:50.966Z,0.3938
2023-05-01T00:26:52.637Z,0.3948
2023-05-01T00:27:54.180Z,0.3980
2023-05-01T00:28:55.856Z,0.3985
2023-05-01T00:29:57.692Z,0.3969
2023-05-01T00:30:59.179Z,0.3965
2023-05-01T00:32:00.789Z,0.3970
2023-05-01T00:33:02.568Z,0.3985
2023-05-01T00:34:04.051Z,0.4000
2023-05-01T00:35:05.716Z,0.3997
2023-05-01T00:36:07.368Z,0.3994
2023-05-01T00:37:09.053Z,0.3988
2023-05-01T00:38:10.662Z,0.4004
2023-05-01T00:39:12.314Z,0.4002
2023-05-01T00:40:13.904Z,0.3990
2023-05-01T00:41:15.679Z,0.3996
2023-05-01T00:42:17.219Z,0.3980
2023-05-01T00:43:18.865Z,0.4012
2023-05-01T00:44:20.592Z,0.3996
2023-05-01T00:45:22.139Z,0.3980
2023-05-01T00:46:24.856Z,0.3974
2023-05-01T00:47:25.480Z,0.3991
2023-05-01T00:48:27.045Z,0.3990
2023-05-01T00:49:28.691Z,0.3961
2023-05-01T00:50:30.359Z,0.3973
2023-05-01T00:51:31.997Z,0.4009
2023-05-01T00:52:33.655Z,0.4035
2023-05-01T00:53:35.250Z,0.4058
2023-05-01T00:54:36.915Z,0.4065
2023-05-01T00:55:38.568Z,0.4047
2023-05-01T00:56:40.291Z,0.4019
2023-05-01T00:57:41.895Z,0.4004
2023-05-01T00:58:44.372Z,0.3993
2023-05-01T00:59:45.204Z,0.4030
2023-05-01T01:00:46.837Z,0.4026
2023-05-01T01:01:48.781Z,0.4015
2023-05-01T01:02:50.140Z,0.3998
2023-05-01T01:03:51.735Z,0.3981
2023-05-01T01:04:53.403Z,0.3953
2023-05-01T01:05:54.994Z,0.3911
2023-05-01T01:06:56.626Z,0.3894
2023-05-01T01:07:58.731Z,0.3920
2023-05-01T01:08:59.894Z,0.3932
2023-05-01T01:10:01.571Z,0.3928
2023-05-01T01:11:03.192Z,0.3942
2023-05-01T01:12:04.866Z,0.3969
2023-05-01T01:13:06.477Z,0.3946
2023-05-01T01:14:08.702Z,0.3930
2023-05-01T01:15:09.739Z,0.3925
2023-05-01T01:16:11.476Z,0.3925
2023-05-01T01:17:13.191Z,0.3927
2023-05-01T01:18:14.805Z,0.3927
2023-05-01T01:19:16.289Z,0.3915
2023-05-01T01:20:18.032Z,0.3903
2023-05-01T01:21:19.608Z,0.3899
2023-05-01T01:22:21.370Z,0.3875
2023-05-01T01:23:22.963Z,0.3889
2023-05-01T01:24:24.562Z,0.3881
2023-05-01T01:25:26.180Z,0.3907
2023-05-01T01:26:27.854Z,0.3960
2023-05-01T01:27:29.531Z,0.3959
2023-05-01T01:28:31.172Z,0.3951
2023-05-01T01:29:32.772Z,0.3934
2023-05-01T01:30:34.464Z,0.3946
2023-05-01T01:31:36.121Z,0.3950
2023-05-01T01:32:37.861Z,0.3938
2023-05-01T01:33:39.357Z,0.3947
2023-05-01T01:34:41.008Z,0.3958
2023-05-01T01:35:42.630Z,0.3971
2023-05-01T01:36:44.296Z,0.3990
2023-05-01T01:37:46.726Z,0.4002
2023-05-01T01:38:47.676Z,0.4017
2023-05-01T01:39:49.174Z,0.3994
2023-05-01T01:40:50.860Z,0.3947
2023-05-01T01:41:52.515Z,0.3934
2023-05-01T01:42:54.266Z,0.3936
2023-05-01T01:43:55.808Z,0.3956
2023-05-01T01:44:57.450Z,0.3944
2023-05-01T01:45:59.089Z,0.3947
2023-05-01T01:47:00.699Z,0.3946
2023-05-01T01:48:02.373Z,0.3958
2023-05-01T01:49:04.079Z,0.3960
2023-05-01T01:50:05.592Z,0.3942
2023-05-01T01:51:07.237Z,0.3950
2023-05-01T01:52:08.912Z,0.3946
2023-05-01T01:53:10.573Z,0.3956
2023-05-01T01:54:12.273Z,0.3940
2023-05-01T01:55:13.877Z,0.3924
2023-05-01T01:56:15.480Z,0.3914
2023-05-01T01:57:17.144Z,0.3901
2023-05-01T01:58:18.813Z,0.3909
2023-05-01T01:59:20.528Z,0.3897
2023-05-01T02:00:22.101Z,0.3916
2023-05-01T02:01:24.279Z,0.3907
2023-05-01T02:02:25.426Z,0.3900
2023-05-01T02:03:27.188Z,0.3895
2023-05-01T02:04:28.705Z,0.3922
2023-05-01T02:05:30.310Z,0.3948
2023-05-01T02:06:32.060Z,0.3956
2023-05-01T02:07:33.533Z,0.3937
2023-05-01T02:08:35.314Z,0.3932
2023-05-01T02:09:36.894Z,0.3944
2023-05-01T02:10:38.623Z,0.3914
2023-05-01T02:11:40.125Z,0.3925
2023-05-01T02:12:41.801Z,0.3930
2023-05-01T02:13:43.438Z,0.3929
2023-05-01T02:14:45.261Z,0.3940
2023-05-01T02:15:46.781Z,0.3935
2023-05-01T02:16:48.500Z,0.3955
2023-05-01T02:17:50.168Z,0.3979
2023-05-01T02:18:51.805Z,0.3975
2023-05-01T02:19:53.552Z,0.3989
2023-05-01T02:20:55.741Z,0.4002
2023-05-01T02:21:56.627Z,0.4040
2023-05-01T02:22:58.297Z,0.4047
2023-05-01T02:23:59.977Z,0.4034
2023-05-01T02:25:01.649Z,0.4046
2023-05-01T02:26:03.211Z,0.4032
2023-05-01T02:27:04.888Z,0.4021
2023-05-01T02:28:06.521Z,0.4043
2023-05-01T02:29:08.343Z,0.4043
2023-05-01T02:30:09.869Z,0.4029
2023-05-01T02:31:11.525Z,0.4006
2023-05-01T02:32:13.080Z,0.3980
2023-05-01T02:33:14.726Z,0.3912
2023-05-01T02:34:16.413Z,0.3888
2023-05-01T02:35:18.045Z,0.3898
2023-05-01T02:36:19.568Z,0.3915
2023-05-01T02:37:21.230Z,0.3902
2023-05-01T02:38:22.820Z,0.3903
2023-05-01T02:39:24.748Z,0.3945
2023-05-01T02:40:26.226Z,0.3926
2023-05-01T02:41:27.820Z,0.3913
2023-05-01T02:42:29.453Z,0.3901
2023-05-01T02:43:31.050Z,0.3907
2023-05-01T02:44:32.753Z,0.3902
2023-05-01T02:45:35.374Z,0.3918
2023-05-01T02:46:36.007Z,0.3916
2023-05-01T02:47:37.672Z,0.3926
2023-05-01T02:48:39.278Z,0.3918
2023-05-01T02:49:40.995Z,0.3912
2023-05-01T02:50:42.582Z,0.3913
2023-05-01T02:51:45.267Z,0.3917
2023-05-01T02:52:45.812Z,0.3918
2023-05-01T02:53:47.573Z,0.3939
2023-05-01T02:54:49.195Z,0.3930
2023-05-01T02:55:50.791Z,0.3930
2023-05-01T02:56:52.438Z,0.3907
2023-05-01T02:57:54.081Z,0.3878
2023-05-01T02:58:55.761Z,0.3861
2023-05-01T02:59:57.672Z,0.3862
2023-05-01T03:00:59.087Z,0.3842
2023-05-01T03:02:00.646Z,0.3850
2023-05-01T03:03:03.329Z,0.3868
2023-05-01T03:04:03.946Z,0.3862
2023-05-01T03:05:05.620Z,0.3866
2023-05-01T03:06:07.229Z,0.3857
2023-05-01T03:07:09.823Z,0.3832
2023-05-01T03:08:10.525Z,0.3816
2023-05-01T03:09:12.189Z,0.3829
2023-05-01T03:10:14.181Z,0.3833
2023-05-01T03:11:16.299Z,0.3872
2023-05-01T03:12:17.058Z,0.3880
2023-05-01T03:13:18.738Z,0.3898
2023-05-01T03:14:20.406Z,0.3908
2023-05-01T03:15:22.223Z,0.3925
2023-05-01T03:16:23.683Z,0.3945
2023-05-01T03:17:25.390Z,0.3923
2023-05-01T03:18:26.927Z,0.3899
2023-05-01T03:19:28.617Z,0.3897
2023-05-01T03:20:30.235Z,0.3937
2023-05-01T03:21:31.884Z,0.3935
2023-05-01T03:22:33.538Z,0.3979
2023-05-01T03:23:35.184Z,0.3984
2023-05-01T03:24:36.801Z,0.4020
2023-05-01T03:25:38.514Z,0.4025
2023-05-01T03:26:40.117Z,0.4009
2023-05-01T03:27:41.736Z,0.4001
2023-05-01T03:28:43.397Z,0.4007
2023-05-01T03:29:45.000Z,0.4017
2023-05-01T03:30:46.697Z,0.3982
2023-05-01T03:31:48.420Z,0.3982
2023-05-01T03:32:49.928Z,0.4008
2023-05-01T03:33:51.606Z,0.4012
2023-05-01T03:34:53.249Z,0.4012
2023-05-01T03:35:54.935Z,0.4006
2023-05-01T03:36:56.544Z,0.4014
2023-05-01T03:37:58.169Z,0.3997
2023-05-01T03:38:59.857Z,0.4007
2023-05-01T03:40:01.474Z,0.4013
2023-05-01T03:41:03.174Z,0.4016
2023-05-01T03:42:04.801Z,0.4007
2023-05-01T03:43:06.391Z,0.4015
2023-05-01T03:44:08.064Z,0.4002
2023-05-01T03:45:09.669Z,0.3980
2023-05-01T03:46:11.428Z,0.3991
2023-05-01T03:47:12.948Z,0.3986
2023-05-01T03:48:14.643Z,0.3980
2023-05-01T03:49:16.265Z,0.3985
2023-05-01T03:50:17.948Z,0.3990
2023-05-01T03:51:19.599Z,0.3974
2023-05-01T03:52:21.212Z,0.3998
2023-05-01T03:53:22.892Z,0.4011
2023-05-01T03:54:24.506Z,0.3993
2023-05-01T03:55:26.167Z,0.3997
2023-05-01T03:56:27.803Z,0.4002
2023-05-01T03:57:29.498Z,0.4008
2023-05-01T03:58:31.108Z,0.4007
2023-05-01T03:59:32.761Z,0.3998
2023-05-01T04:00:34.420Z,0.3983
2023-05-01T04:01:36.065Z,0.3982
2023-05-01T04:02:37.759Z,0.3953
2023-05-01T04:03:39.411Z,0.3954
2023-05-01T04:04:41.107Z,0.3958
2023-05-01T04:05:42.647Z,0.3964
2023-05-01T04:06:44.422Z,0.3944
2023-05-01T04:07:48.920Z,0.3971
2023-05-01T04:08:52.702Z,0.3980
2023-05-01T04:09:54.633Z,0.4019
2023-05-01T04:10:55.727Z,0.4025
2023-05-01T04:11:57.375Z,0.4005
2023-05-01T04:12:59.035Z,0.4001
2023-05-01T04:14:00.643Z,0.4012
2023-05-01T04:15:03.210Z,0.3997
2023-05-01T04:16:04.008Z,0.3991
2023-05-01T04:17:05.546Z,0.4011
2023-05-01T04:18:07.256Z,0.3999
2023-05-01T04:19:08.961Z,0.3964
2023-05-01T04:20:10.521Z,0.3935
2023-05-01T04:21:12.149Z,0.3930
2023-05-01T04:22:13.802Z,0.3933
2023-05-01T04:23:15.438Z,0.3940
2023-05-01T04:24:17.100Z,0.3928
2023-05-01T04:25:19.703Z,0.3910
2023-05-01T04:26:20.386Z,0.3930
2023-05-01T04:27:22.045Z,0.3931
2023-05-01T04:28:23.698Z,0.3915
2023-05-01T04:29:25.287Z,0.3894
2023-05-01T04:30:26.968Z,0.3881
2023-05-01T04:31:28.587Z,0.3920
2023-05-01T04:32:30.856Z,0.3926
2023-05-01T04:33:31.909Z,0.3941
2023-05-01T04:34:33.516Z,0.3955
2023-05-01T04:35:35.222Z,0.3936
2023-05-01T04:36:36.839Z,0.3920
2023-05-01T04:37:38.451Z,0.3917
2023-05-01T04:38:40.135Z,0.3901
2023-05-01T04:39:41.771Z,0.3899
2023-05-01T04:40:43.411Z,0.3903
2023-05-01T04:41:45.050Z,0.3882
2023-05-01T04:42:46.678Z,0.3887
2023-05-01T04:43:48.346Z,0.3915
2023-05-01T04:44:49.984Z,0.3928
2023-05-01T04:45:51.644Z,0.3910
2023-05-01T04:46:53.321Z,0.3908
2023-05-01T04:47:54.998Z,0.3902
2023-05-01T04:48:56.519Z,0.3906
2023-05-01T04:49:58.437Z,0.3868
2023-05-01T04:50:59.915Z,0.3873
2023-05-01T04:52:01.551Z,0.3857
2023-05-01T04:53:03.213Z,0.3852
2023-05-01T04:54:05.752Z,0.3845
2023-05-01T04:55:06.457Z,0.3836
2023-05-01T04:56:08.042Z,0.3851
2023-05-01T04:57:09.697Z,0.3851
2023-05-01T04:58:11.377Z,0.3857
2023-05-01T04:59:13.999Z,0.3853
2023-05-01T05:00:14.639Z,0.3851
2023-05-01T05:01:16.284Z,0.3846
2023-05-01T05:02:17.988Z,0.3844
2023-05-01T05:03:19.746Z,0.3849
2023-05-01T05:04:21.257Z,0.3850
2023-05-01T05:05:22.912Z,0.3836
2023-05-01T05:06:24.573Z,0.3818
2023-05-01T05:07:26.220Z,0.3846
2023-05-01T05:08:27.776Z,0.3880
2023-05-01T05:09:29.454Z,0.3888
2023-05-01T05:10:31.134Z,0.3882
2023-05-01T05:11:32.767Z,0.3918
2023-05-01T05:12:34.375Z,0.3939
2023-05-01T05:13:36.253Z,0.3970
2023-05-01T05:14:37.738Z,0.4000
2023-05-01T05:15:39.333Z,0.3987
2023-05-01T05:16:41.013Z,0.3979
2023-05-01T05:17:42.617Z,0.3996
2023-05-01T05:18:44.290Z,0.3980
2023-05-01T05:19:45.902Z,0.3965
2023-05-01T05:20:47.575Z,0.3937
2023-05-01T05:21:50.147Z,0.3937
2023-05-01T05:22:50.793Z,0.3936
2023-05-01T05:23:52.495Z,0.3918
2023-05-01T05:24:54.120Z,0.3910
2023-05-01T05:25:55.754Z,0.3943
2023-05-01T05:26:57.452Z,0.3918
2023-05-01T05:27:59.453Z,0.3890
2023-05-01T05:29:00.699Z,0.3870
2023-05-01T05:30:02.422Z,0.3884
2023-05-01T05:31:03.961Z,0.3869
2023-05-01T05:32:05.681Z,0.3858
2023-05-01T05:33:07.329Z,0.3868
2023-05-01T05:34:08.947Z,0.3892
2023-05-01T05:35:10.597Z,0.3893
2023-05-01T05:36:12.287Z,0.3906
2023-05-01T05:37:13.991Z,0.3909
2023-05-01T05:38:15.519Z,0.3944
2023-05-01T05:39:17.947Z,0.3971
2023-05-01T05:40:19.922Z,0.3984
2023-05-01T05:41:20.326Z,0.3972
2023-05-01T05:42:22.170Z,0.3962
2023-05-01T05:43:25.038Z,0.3983
2023-05-01T05:44:25.413Z,0.3991
2023-05-01T05:45:27.018Z,0.3999
2023-05-01T05:46:28.660Z,0.4015
2023-05-01T05:47:30.601Z,0.4014
2023-05-01T05:48:31.935Z,0.4039
2023-05-01T05:49:33.574Z,0.4029
2023-05-01T05:50:35.291Z,0.3988
2023-05-01T05:51:36.926Z,0.3970
2023-05-01T05:52:38.593Z,0.3960
2023-05-01T05:53:40.117Z,0.3967
2023-05-01T05:54:42.770Z,0.3981
2023-05-01T05:55:43.485Z,0.3957
2023-05-01T05:56:45.195Z,0.3934
2023-05-01T05:57:46.747Z,0.3939
2023-05-01T05:58:48.387Z,0.3902
2023-05-01T05:59:50.033Z,0.3907
2023-05-01T06:00:51.786Z,0.3911
2023-05-01T06:01:53.352Z,0.3922
2023-05-01T06:02:55.200Z,0.3923
2023-05-01T06:03:56.621Z,0.3930
2023-05-01T06:04:58.270Z,0.3908
2023-05-01T06:06:00.024Z,0.3891
2023-05-01T06:07:01.597Z,0.3859
2023-05-01T06:08:03.168Z,0.3859
2023-05-01T06:09:04.820Z,0.3877
2023-05-01T06:10:06.401Z,0.3884
2023-05-01T06:11:08.138Z,0.3899
2023-05-01T06:12:09.705Z,0.3889
2023-05-01T06:13:14.133Z,0.3915
2023-05-01T06:14:12.992Z,0.3936
2023-05-01T06:15:14.651Z,0.3946
2023-05-01T06:16:16.290Z,0.3933
2023-05-01T06:17:17.972Z,0.3946
2023-05-01T06:18:20.028Z,0.3942
2023-05-01T06:19:21.328Z,0.3949
2023-05-01T06:20:22.980Z,0.3964
2023-05-01T06:21:24.557Z,0.3985
2023-05-01T06:22:26.279Z,0.3980
2023-05-01T06:23:27.869Z,0.3972
2023-05-01T06:24:29.605Z,0.3971
2023-05-01T06:25:31.163Z,0.3982
2023-05-01T06:26:32.801Z,0.3990
2023-05-01T06:27:34.500Z,0.3971
2023-05-01T06:28:36.142Z,0.3977
2023-05-01T06:29:37.731Z,0.4023
2023-05-01T06:30:39.413Z,0.4042
2023-05-01T06:31:40.975Z,0.4056
2023-05-01T06:32:42.702Z,0.4062
2023-05-01T06:33:44.331Z,0.4063
2023-05-01T06:34:45.922Z,0.4069
2023-05-01T06:35:47.561Z,0.4054
2023-05-01T06:36:49.220Z,0.4029
2023-05-01T06:37:50.831Z,0.4006
2023-05-01T06:38:52.648Z,0.4012
2023-05-01T06:39:54.540Z,0.3975
2023-05-01T06:40:56.803Z,0.3954
2023-05-01T06:41:57.427Z,0.3921
2023-05-01T06:42:59.079Z,0.3920
2023-05-01T06:44:00.774Z,0.3937
2023-05-01T06:45:02.609Z,0.3918
2023-05-01T06:46:03.977Z,0.3910
2023-05-01T06:47:05.760Z,0.3927
2023-05-01T06:48:07.290Z,0.3938
2023-05-01T06:49:08.972Z,0.3923
2023-05-01T06:50:10.522Z,0.3899
2023-05-01T06:51:12.360Z,0.3893
2023-05-01T06:52:13.872Z,0.3885
2023-05-01T06:53:15.481Z,0.3903
2023-05-01T06:54:17.236Z,0.3927
2023-05-01T06:55:18.705Z,0.3963
2023-05-01T06:56:20.418Z,0.3977
2023-05-01T06:57:23.588Z,0.3963
2023-05-01T06:58:24.624Z,0.3972
2023-05-01T06:59:25.331Z,0.3942
2023-05-01T07:00:26.932Z,0.3916
2023-05-01T07:01:28.589Z,0.3918
2023-05-01T07:02:30.245Z,0.3915
2023-05-01T07:03:31.935Z,0.3894
2023-05-01T07:04:33.938Z,0.3872
2023-05-01T07:05:35.086Z,0.3897
2023-05-01T07:06:36.776Z,0.3890
2023-05-01T07:07:42.223Z,0.3875
2023-05-01T07:08:40.054Z,0.3855
2023-05-01T07:09:41.746Z,0.3845
2023-05-01T07:10:43.324Z,0.3856
2023-05-01T07:11:44.968Z,0.3863
2023-05-01T07:12:46.619Z,0.3865
2023-05-01T07:13:48.283Z,0.3858
2023-05-01T07:14:49.938Z,0.3846
2023-05-01T07:15:53.874Z,0.3851
2023-05-01T07:16:53.307Z,0.3879
2023-05-01T07:17:54.799Z,0.3893
2023-05-01T07:18:56.506Z,0.3877
2023-05-01T07:19:58.319Z,0.3842
2023-05-01T07:20:59.792Z,0.3856
2023-05-01T07:22:01.336Z,0.3832
2023-05-01T07:23:04.214Z,0.3815
2023-05-01T07:24:04.710Z,0.3816
2023-05-01T07:25:06.341Z,0.3818
2023-05-01T07:26:07.936Z,0.3814
2023-05-01T07:27:09.579Z,0.3783
2023-05-01T07:28:11.169Z,0.3787
2023-05-01T07:29:12.930Z,0.3793
2023-05-01T07:30:14.470Z,0.3799
2023-05-01T07:31:16.152Z,0.3801
2023-05-01T07:32:17.771Z,0.3801
2023-05-01T07:33:19.504Z,0.3792
2023-05-01T07:34:21.091Z,0.3800
2023-05-01T07:35:22.708Z,0.3798
2023-05-01T07:36:24.482Z,0.3804
2023-05-01T07:37:26.004Z,0.3812
2023-05-01T07:38:27.602Z,0.3799
2023-05-01T07:39:29.342Z,0.3801
2023-05-01T07:40:30.928Z,0.3791
2023-05-01T07:41:32.574Z,0.3764
2023-05-01T07:42:34.165Z,0.3773
2023-05-01T07:43:35.887Z,0.3785
2023-05-01T07:44:37.484Z,0.3772
2023-05-01T07:45:39.304Z,0.3776
2023-05-01T07:46:41.414Z,0.3769
2023-05-01T07:47:42.438Z,0.3766
2023-05-01T07:48:44.033Z,0.3776
2023-05-01T07:49:45.748Z,0.3779
2023-05-01T07:50:47.323Z,0.3778
2023-05-01T07:51:48.967Z,0.3804
2023-05-01T07:52:50.661Z,0.3789
2023-05-01T07:53:52.255Z,0.3783
2023-05-01T07:54:53.948Z,0.3768
2023-05-01T07:55:55.590Z,0.3751
2023-05-01T07:56:57.235Z,0.3747
2023-05-01T07:57:58.832Z,0.3764
2023-05-01T07:59:00.516Z,0.3776
2023-05-01T08:00:02.228Z,0.3760
2023-05-01T08:01:03.780Z,0.3746
2023-05-01T08:02:05.437Z,0.3718
2023-05-01T08:03:07.317Z,0.3725
2023-05-01T08:04:08.745Z,0.3732
2023-05-01T08:05:10.430Z,0.3759
2023-05-01T08:06:12.008Z,0.3759
2023-05-01T08:07:13.628Z,0.3725
2023-05-01T08:08:15.195Z,0.3712
2023-05-01T08:09:16.880Z,0.3726
2023-05-01T08:10:18.584Z,0.3717
2023-05-01T08:11:20.193Z,0.3716
2023-05-01T08:12:21.845Z,0.3704
2023-05-01T08:13:23.496Z,0.3667
2023-05-01T08:14:25.051Z,0.3673
2023-05-01T08:15:26.849Z,0.3696
2023-05-01T08:16:28.535Z,0.3704
2023-05-01T08:17:30.106Z,0.3659
2023-05-01T08:18:31.669Z,0.3639
2023-05-01T08:19:33.364Z,0.3641
2023-05-01T08:20:35.030Z,0.3633
2023-05-01T08:21:36.724Z,0.3633
2023-05-01T08:22:38.292Z,0.3627
2023-05-01T08:23:39.874Z,0.3612
2023-05-01T08:24:42.467Z,0.3615
2023-05-01T08:25:43.205Z,0.3629
2023-05-01T08:26:44.906Z,0.3648
2023-05-01T08:27:46.437Z,0.3626
2023-05-01T08:28:48.988Z,0.3617
2023-05-01T08:29:49.707Z,0.3625
2023-05-01T08:30:51.525Z,0.3625
2023-05-01T08:31:53.129Z,0.3615
2023-05-01T08:32:54.726Z,0.3655
2023-05-01T08:33:56.314Z,0.3664
2023-05-01T08:34:58.038Z,0.3636
2023-05-01T08:35:59.660Z,0.3636
2023-05-01T08:37:01.613Z,0.3683
2023-05-01T08:38:02.865Z,0.3690
2023-05-01T08:39:04.554Z,0.3714
2023-05-01T08:40:06.127Z,0.3727
2023-05-01T08:41:07.846Z,0.3736
2023-05-01T08:42:09.471Z,0.3708
2023-05-01T08:43:11.115Z,0.3723
2023-05-01T08:44:12.703Z,0.3735
2023-05-01T08:45:14.413Z,0.3741
2023-05-01T08:46:16.061Z,0.3702
2023-05-01T08:47:17.711Z,0.3685
2023-05-01T08:48:19.254Z,0.3683
2023-05-01T08:49:20.908Z,0.3662
2023-05-01T08:50:22.778Z,0.3678
2023-05-01T08:51:24.324Z,0.3650
2023-05-01T08:52:25.800Z,0.3657
2023-05-01T08:53:27.546Z,0.3709
2023-05-01T08:54:29.192Z,0.3715
2023-05-01T08:55:30.799Z,0.3717
2023-05-01T08:56:32.481Z,0.3710
2023-05-01T08:57:34.539Z,0.3700
2023-05-01T08:58:35.729Z,0.3684
2023-05-01T08:59:37.334Z,0.3679
2023-05-01T09:00:39.031Z,0.3679
2023-05-01T09:01:40.775Z,0.3657
2023-05-01T09:02:42.420Z,0.3647
2023-05-01T09:03:44.035Z,0.3665
2023-05-01T09:04:45.657Z,0.3670
2023-05-01T09:05:47.229Z,0.3664
2023-05-01T09:06:49.649Z,0.3679
2023-05-01T09:07:50.515Z,0.3691
2023-05-01T09:08:52.169Z,0.3686
2023-05-01T09:09:53.858Z,0.3682
2023-05-01T09:10:55.439Z,0.3715
2023-05-01T09:11:57.028Z,0.3741
2023-05-01T09:12:58.765Z,0.3759
2023-05-01T09:14:00.275Z,0.3774
2023-05-01T09:15:01.996Z,0.3806
2023-05-01T09:16:03.606Z,0.3817
2023-05-01T09:17:05.295Z,0.3813
2023-05-01T09:18:07.021Z,0.3829
2023-05-01T09:19:08.526Z,0.3802
2023-05-01T09:20:10.213Z,0.3797
2023-05-01T09:21:11.836Z,0.3804
2023-05-01T09:22:13.493Z,0.3806
2023-05-01T09:23:15.155Z,0.3802
2023-05-01T09:24:16.669Z,0.3801
2023-05-01T09:25:18.362Z,0.3809
2023-05-01T09:26:20.054Z,0.3814
2023-05-01T09:27:21.685Z,0.3822
2023-05-01T09:28:23.457Z,0.3807
2023-05-01T09:29:24.927Z,0.3791
2023-05-01T09:30:26.676Z,0.3800
2023-05-01T09:31:28.273Z,0.3772
2023-05-01T09:32:30.013Z,0.3781
2023-05-01T09:33:32.483Z,0.3771
2023-05-01T09:34:33.217Z,0.3766
2023-05-01T09:35:34.866Z,0.3760
2023-05-01T09:36:36.456Z,0.3763
2023-05-01T09:37:38.067Z,0.3768
2023-05-01T09:38:39.804Z,0.3761
2023-05-01T09:39:41.368Z,0.3768
2023-05-01T09:40:43.012Z,0.3771
2023-05-01T09:41:44.736Z,0.3773
2023-05-01T09:42:46.334Z,0.3760
2023-05-01T09:43:48.106Z,0.3769
2023-05-01T09:44:49.680Z,0.3770
2023-05-01T09:45:51.310Z,0.3761
2023-05-01T09:46:52.856Z,0.3757
2023-05-01T09:47:54.625Z,0.3742
2023-05-01T09:48:56.943Z,0.3734
2023-05-01T09:49:58.230Z,0.3712
2023-05-01T09:50:59.565Z,0.3622
2023-05-01T09:52:01.236Z,0.3617
2023-05-01T09:53:03.386Z,0.3676
2023-05-01T09:54:05.534Z,0.3733
2023-05-01T09:55:06.078Z,0.3712
2023-05-01T09:56:07.824Z,0.3759
2023-05-01T09:57:09.605Z,0.3790
2023-05-01T09:58:11.080Z,0.3794
2023-05-01T09:59:12.749Z,0.3803
2023-05-01T10:00:14.432Z,0.3826
2023-05-01T10:01:17.048Z,0.3829
2023-05-01T10:02:18.753Z,0.3815
2023-05-01T10:03:19.316Z,0.3795
2023-05-01T10:04:20.959Z,0.3782
2023-05-01T10:05:22.509Z,0.3810
2023-05-01T10:06:24.300Z,0.3808
2023-05-01T10:07:25.798Z,0.3813
2023-05-01T10:08:27.498Z,0.3820
2023-05-01T10:09:29.189Z,0.3822
2023-05-01T10:10:30.792Z,0.3814
2023-05-01T10:11:32.373Z,0.3816
2023-05-01T10:12:34.049Z,0.3807
2023-05-01T10:13:36.522Z,0.3826
2023-05-01T10:14:37.442Z,0.3813
2023-05-01T10:15:39.036Z,0.3812
2023-05-01T10:16:40.688Z,0.3840
2023-05-01T10:17:42.286Z,0.3853
2023-05-01T10:18:43.936Z,0.3849
2023-05-01T10:19:45.576Z,0.3839
2023-05-01T10:20:47.390Z,0.3859
2023-05-01T10:21:48.931Z,0.3873
2023-05-01T10:22:50.583Z,0.3883
2023-05-01T10:23:52.189Z,0.3903
2023-05-01T10:24:53.918Z,0.3885
2023-05-01T10:25:55.501Z,0.3883
2023-05-01T10:26:57.155Z,0.3875
2023-05-01T10:27:58.760Z,0.3863
2023-05-01T10:29:00.378Z,0.3846
2023-05-01T10:30:02.105Z,0.3843
2023-05-01T10:31:03.785Z,0.3856
2023-05-01T10:32:05.346Z,0.3842
2023-05-01T10:33:07.013Z,0.3833
2023-05-01T10:34:08.660Z,0.3813
2023-05-01T10:35:10.277Z,0.3807
2023-05-01T10:36:12.540Z,0.3794
2023-05-01T10:37:13.542Z,0.3786
2023-05-01T10:38:15.192Z,0.3779
2023-05-01T10:39:16.858Z,0.3764
2023-05-01T10:40:18.494Z,0.3755
2023-05-01T10:41:20.077Z,0.3763
2023-05-01T10:42:21.735Z,0.3781
2023-05-01T10:43:23.334Z,0.3773
2023-05-01T10:44:24.964Z,0.3792
2023-05-01T10:45:26.685Z,0.3768
2023-05-01T10:46:28.458Z,0.3713
2023-05-01T10:47:29.928Z,0.3729
2023-05-01T10:48:31.576Z,0.3743
2023-05-01T10:49:33.192Z,0.3762
2023-05-01T10:50:34.901Z,0.3776
2023-05-01T10:51:36.474Z,0.3799
2023-05-01T10:52:38.129Z,0.3851
2023-05-01T10:53:39.772Z,0.3838
2023-05-01T10:54:41.425Z,0.3833
2023-05-01T10:55:43.073Z,0.3819
2023-05-01T10:56:44.671Z,0.3805
2023-05-01T10:57:46.963Z,0.3801
2023-05-01T10:58:48.963Z,0.3843
2023-05-01T10:59:49.682Z,0.3875
2023-05-01T11:00:52.010Z,0.3882
2023-05-01T11:01:53.019Z,0.3867
2023-05-01T11:02:54.665Z,0.3886
2023-05-01T11:03:56.195Z,0.3894
2023-05-01T11:04:58.140Z,0.3907
2023-05-01T11:05:59.685Z,0.3903
2023-05-01T11:07:01.236Z,0.3902
2023-05-01T11:08:02.764Z,0.3897
2023-05-01T11:09:04.425Z,0.3876
2023-05-01T11:10:06.021Z,0.3871
2023-05-01T11:11:08.031Z,0.3851
2023-05-01T11:12:09.359Z,0.3861
2023-05-01T11:13:11.005Z,0.3906
2023-05-01T11:14:12.590Z,0.3965
2023-05-01T11:15:14.297Z,0.3940
2023-05-01T11:16:16.016Z,0.3911
2023-05-01T11:17:17.626Z,0.3938
2023-05-01T11:18:19.202Z,0.3886
2023-05-01T11:19:20.885Z,0.3875
2023-05-01T11:20:22.490Z,0.3886
2023-05-01T11:21:24.194Z,0.3869
2023-05-01T11:22:25.817Z,0.3875
2023-05-01T11:23:27.449Z,0.3877
2023-05-01T11:24:29.050Z,0.3858
2023-05-01T11:25:30.725Z,0.3846
2023-05-01T11:26:32.697Z,0.3845
2023-05-01T11:27:34.071Z,0.3830
2023-05-01T11:28:35.661Z,0.3830
2023-05-01T11:29:37.348Z,0.3831
2023-05-01T11:30:38.972Z,0.3834
2023-05-01T11:31:40.682Z,0.3846
2023-05-01T11:32:42.237Z,0.3851
2023-05-01T11:33:43.904Z,0.3850
2023-05-01T11:34:45.476Z,0.3858
2023-05-01T11:35:47.177Z,0.3844
2023-05-01T11:36:48.807Z,0.3826
2023-05-01T11:37:50.517Z,0.3800
2023-05-01T11:38:52.190Z,0.3812
2023-05-01T11:39:53.790Z,0.3803
2023-05-01T11:40:55.419Z,0.3805
2023-05-01T11:41:57.635Z,0.3816
2023-05-01T11:42:58.693Z,0.3817
2023-05-01T11:44:00.362Z,0.3824
2023-05-01T11:45:02.018Z,0.3831
2023-05-01T11:46:04.378Z,0.3832
2023-05-01T11:47:05.440Z,0.3817
2023-05-01T11:48:07.125Z,0.3799
2023-05-01T11:49:09.685Z,0.3803
2023-05-01T11:50:10.418Z,0.3803
2023-05-01T11:51:12.010Z,0.3799
2023-05-01T11:52:13.661Z,0.3811
2023-05-01T11:53:15.353Z,0.3801
2023-05-01T11:54:17.864Z,0.3788
2023-05-01T11:55:18.659Z,0.3785
2023-05-01T11:56:26.405Z,0.3779
2023-05-01T11:57:21.906Z,0.3771
2023-05-01T11:58:24.609Z,0.3762
2023-05-01T11:59:25.084Z,0.3756
2023-05-01T12:00:26.860Z,0.3753
2023-05-01T12:01:29.419Z,0.3752
2023-05-01T12:02:30.221Z,0.3762
2023-05-01T12:03:31.937Z,0.3769
2023-05-01T12:04:33.707Z,0.3771
2023-05-01T12:05:35.341Z,0.3764
2023-05-01T12:06:36.659Z,0.3753
2023-05-01T12:07:38.332Z,0.3749
2023-05-01T12:08:39.959Z,0.3762
2023-05-01T12:09:42.620Z,0.3798
2023-05-01T12:10:43.205Z,0.3793
2023-05-01T12:11:44.853Z,0.3779
2023-05-01T12:12:46.537Z,0.3779
2023-05-01T12:13:48.383Z,0.3785
2023-05-01T12:14:49.807Z,0.3775
2023-05-01T12:15:52.397Z,0.3774
2023-05-01T12:16:53.172Z,0.3798
2023-05-01T12:17:54.851Z,0.3812
2023-05-01T12:18:57.446Z,0.3811
2023-05-01T12:19:57.949Z,0.3804
2023-05-01T12:20:59.716Z,0.3806
2023-05-01T12:22:01.289Z,0.3805
2023-05-01T12:23:03.019Z,0.3794
2023-05-01T12:24:05.650Z,0.3794
2023-05-01T12:25:06.218Z,0.3783
2023-05-01T12:26:08.867Z,0.3777
2023-05-01T12:27:09.490Z,0.3799
2023-05-01T12:28:11.075Z,0.3792
2023-05-01T12:29:13.677Z,0.3795
2023-05-01T12:30:14.369Z,0.3811
2023-05-01T12:31:16.050Z,0.3795
2023-05-01T12:32:17.630Z,0.3786
2023-05-01T12:33:19.492Z,0.3804
2023-05-01T12:34:21.023Z,0.3803
2023-05-01T12:35:22.620Z,0.3790
2023-05-01T12:36:24.230Z,0.3827
2023-05-01T12:37:25.922Z,0.3825
2023-05-01T12:38:27.512Z,0.3824
2023-05-01T12:39:29.255Z,0.3847
2023-05-01T12:40:30.832Z,0.3867
2023-05-01T12:41:32.507Z,0.3854
2023-05-01T12:42:34.106Z,0.3847
2023-05-01T12:43:35.834Z,0.3828
2023-05-01T12:44:37.469Z,0.3830
2023-05-01T12:45:39.102Z,0.3808
2023-05-01T12:46:40.745Z,0.3809
2023-05-01T12:47:42.423Z,0.3812
2023-05-01T12:48:43.997Z,0.3818